Time;durP1;ratioP1;P1;durP2;ratioP2;P2;SDS_P1;SDS_P2;PMS_P1;PMS_P2;Temp;Humidity;BMP_temperature;BMP_pressure;BME280_temperature;BME280_humidity;BME280_pressure;Samples;Min_cycle;Max_cycle;Signal;HPM_P1;HPM_P2
2021/01/06 00:01:38;;;;;;;29.30;12.40;;;-0.50;99.90;;;;;;8292361;28;20380;-71
2021/01/06 00:05:39;;;;;;;33.13;12.93;;;-0.50;99.90;;;;;;8290989;28;20033;-71
2021/01/06 00:09:40;;;;;;;29.15;12.65;;;-0.30;99.90;;;;;;8292315;28;20037;-71
2021/01/06 00:13:40;;;;;;;29.15;11.98;;;-0.10;99.90;;;;;;8292204;28;20026;-70
2021/01/06 00:17:41;;;;;;;32.38;12.65;;;-0.20;99.90;;;;;;8292266;28;20101;-71
2021/01/06 00:21:41;;;;;;;29.83;12.45;;;0.00;99.90;;;;;;8291942;28;20029;-72
2021/01/06 00:25:42;;;;;;;30.83;12.70;;;-0.10;99.90;;;;;;8292085;28;20443;-71
2021/01/06 00:29:44;;;;;;;33.03;12.45;;;-0.10;99.90;;;;;;8291865;28;20022;-71
2021/01/06 00:33:44;;;;;;;29.23;11.65;;;0.00;99.90;;;;;;8292010;28;20130;-71
2021/01/06 00:37:45;;;;;;;31.20;13.65;;;-0.40;99.90;;;;;;8291594;28;20026;-71
2021/01/06 00:41:47;;;;;;;29.77;12.18;;;-0.30;99.90;;;;;;8274278;28;20037;-71
2021/01/06 00:45:47;;;;;;;32.95;13.38;;;-0.10;99.90;;;;;;8291791;28;20427;-71
2021/01/06 00:49:48;;;;;;;33.80;12.98;;;-0.30;99.90;;;;;;8291588;28;20083;-71
2021/01/06 00:53:48;;;;;;;30.30;13.48;;;-0.40;99.90;;;;;;8291637;28;20454;-71
2021/01/06 00:57:51;;;;;;;31.83;13.55;;;-0.30;99.90;;;;;;8274077;28;20030;-71
2021/01/06 01:01:51;;;;;;;38.80;14.65;;;-0.50;99.90;;;;;;8291343;28;20036;-71
2021/01/06 01:05:52;;;;;;;37.03;14.52;;;-0.40;99.90;;;;;;8291400;28;20443;-71
2021/01/06 01:09:53;;;;;;;35.70;14.10;;;-0.50;99.90;;;;;;8291316;28;20022;-71
2021/01/06 01:13:55;;;;;;;34.25;13.80;;;-0.30;99.90;;;;;;8291318;28;20034;-71
2021/01/06 01:17:56;;;;;;;33.80;14.15;;;-0.20;99.90;;;;;;8291350;28;20033;-71
2021/01/06 01:21:57;;;;;;;36.75;14.25;;;-0.40;99.90;;;;;;8291103;28;20030;-71
2021/01/06 01:25:58;;;;;;;36.97;14.60;;;-0.30;99.90;;;;;;8291059;28;20105;-71
2021/01/06 01:29:59;;;;;;;33.55;13.00;;;-0.40;99.90;;;;;;8291085;28;20042;-70
2021/01/06 01:34:00;;;;;;;36.50;14.02;;;-0.20;99.90;;;;;;8297087;28;20034;-71
2021/01/06 01:38:03;;;;;;;26.13;12.70;;;0.10;99.90;;;;;;8296598;28;20084;-71
2021/01/06 01:42:04;;;;;;;34.10;13.77;;;-0.20;99.90;;;;;;8296588;28;20116;-71
2021/01/06 01:46:06;;;;;;;40.33;14.38;;;-0.30;99.90;;;;;;8296667;28;20030;-71
2021/01/06 01:50:07;;;;;;;34.50;14.07;;;-0.10;99.90;;;;;;8296507;28;20018;-71
2021/01/06 01:54:13;;;;;;;33.60;13.68;;;-0.30;99.90;;;;;;8297013;28;20036;-71
2021/01/06 01:58:19;;;;;;;35.03;14.27;;;-0.40;99.90;;;;;;8296582;28;20034;-72
2021/01/06 02:02:35;;;;;;;35.28;13.68;;;-0.10;99.90;;;;;;8278452;28;20034;-71
2021/01/06 02:06:43;;;;;;;36.78;14.30;;;-0.20;99.90;;;;;;8293732;28;20033;-71
2021/01/06 02:11:01;;;;;;;37.25;14.57;;;-0.40;99.90;;;;;;8293536;28;20479;-71
2021/01/06 02:15:22;;;;;;;31.45;13.13;;;-0.30;99.90;;;;;;8293263;28;20034;-71
2021/01/06 02:19:30;;;;;;;35.28;13.60;;;-0.50;99.90;;;;;;8294195;28;20041;-71
2021/01/06 02:23:31;;;;;;;28.88;12.95;;;-0.50;99.90;;;;;;8295585;28;20057;-71
2021/01/06 02:27:31;;;;;;;33.03;13.63;;;-0.40;99.90;;;;;;8295396;28;20029;-71
2021/01/06 02:31:32;;;;;;;39.00;15.27;;;-0.40;99.90;;;;;;8295112;28;20113;-71
2021/01/06 02:35:33;;;;;;;38.85;15.05;;;-0.50;99.90;;;;;;8294639;28;20036;-71
2021/01/06 02:39:34;;;;;;;35.08;14.88;;;-0.60;99.90;;;;;;8294981;28;20030;-71
2021/01/06 02:43:35;;;;;;;33.17;14.25;;;-0.60;99.90;;;;;;8294456;28;20448;-71
2021/01/06 02:47:36;;;;;;;39.50;14.07;;;-0.50;99.90;;;;;;8276806;28;20022;-71
2021/01/06 02:52:06;;;;;;;35.83;15.75;;;-0.40;99.90;;;;;;8294626;28;20033;-71
2021/01/06 02:56:07;;;;;;;35.53;14.45;;;-0.30;99.90;;;;;;8294566;28;20030;-71
2021/01/06 03:00:09;;;;;;;37.40;14.98;;;-0.50;99.90;;;;;;8294206;28;20022;-71
2021/01/06 03:04:14;;;;;;;39.20;16.00;;;-0.50;99.90;;;;;;8294261;28;20053;-72
2021/01/06 03:08:17;;;;;;;39.03;15.77;;;-0.50;99.90;;;;;;8294292;28;20430;-71
2021/01/06 03:12:27;;;;;;;37.65;15.20;;;-0.30;99.90;;;;;;8293981;28;20014;-71
2021/01/06 03:16:28;;;;;;;40.55;16.92;;;-0.40;99.90;;;;;;8276315;28;20530;-71
2021/01/06 03:20:32;;;;;;;42.22;16.73;;;-0.50;99.90;;;;;;8293686;28;20036;-72
2021/01/06 03:24:39;;;;;;;26.42;11.15;;;-0.60;99.90;;;;;;8293598;28;20022;-71
2021/01/06 03:28:41;;;;;;;43.05;16.33;;;-0.60;99.90;;;;;;8293365;28;20022;-71
2021/01/06 03:32:50;;;;;;;44.58;18.13;;;-0.50;99.90;;;;;;8293497;28;20022;-71
2021/01/06 03:36:59;;;;;;;41.57;16.47;;;-0.60;99.90;;;;;;8293300;28;20059;-71
2021/01/06 03:41:01;;;;;;;39.65;16.00;;;-0.50;99.90;;;;;;8293214;28;20267;-71
2021/01/06 03:45:04;;;;;;;39.22;16.00;;;-0.50;99.90;;;;;;8293022;28;20042;-70
2021/01/06 03:49:32;;;;;;;41.97;16.52;;;-0.50;99.90;;;;;;8292958;28;20018;-71
2021/01/06 03:53:41;;;;;;;42.63;17.95;;;-0.70;99.90;;;;;;8292231;28;20032;-71
2021/01/06 03:57:43;;;;;;;45.75;18.67;;;-0.60;99.90;;;;;;8275257;28;20108;-72
2021/01/06 04:01:59;;;;;;;48.38;18.65;;;-0.50;99.90;;;;;;8292468;28;20044;-71
2021/01/06 04:06:03;;;;;;;46.95;18.73;;;-0.40;99.90;;;;;;8292619;28;20026;-72
2021/01/06 04:10:29;;;;;;;46.25;18.65;;;-0.30;99.90;;;;;;8274827;28;20054;-72
2021/01/06 04:14:29;;;;;;;49.00;19.80;;;-0.40;99.90;;;;;;8274661;28;20040;-71
2021/01/06 04:18:30;;;;;;;48.05;18.42;;;-0.50;99.90;;;;;;8292390;28;20223;-71
2021/01/06 04:22:40;;;;;;;48.20;19.67;;;-0.60;99.90;;;;;;8292250;28;20030;-71
2021/01/06 04:26:41;;;;;;;51.35;19.42;;;-0.30;99.90;;;;;;8292014;28;20037;-71
2021/01/06 04:30:49;;;;;;;49.45;18.15;;;-0.40;99.90;;;;;;8274263;28;20022;-71
2021/01/06 04:34:49;;;;;;;48.13;18.40;;;-0.50;99.90;;;;;;8292059;28;20017;-71
2021/01/06 04:38:53;;;;;;;47.35;18.08;;;-0.30;99.90;;;;;;8291354;28;20395;-71
2021/01/06 04:43:01;;;;;;;51.10;19.67;;;-0.30;99.90;;;;;;8291936;28;20526;-71
2021/01/06 04:47:22;;;;;;;46.15;18.65;;;-0.50;99.90;;;;;;8291695;28;20492;-71
2021/01/06 04:51:58;;;;;;;45.05;18.13;;;-0.50;99.90;;;;;;8291625;28;20018;-71
2021/01/06 04:56:35;;;;;;;48.85;19.05;;;-0.50;99.90;;;;;;8291869;28;20395;-71
2021/01/06 05:00:50;;;;;;;46.85;17.75;;;-0.60;99.90;;;;;;8291365;28;20030;-71
2021/01/06 05:05:28;;;;;;;45.25;18.80;;;-0.50;99.90;;;;;;8275992;28;20033;-71
2021/01/06 05:09:39;;;;;;;43.22;17.60;;;-0.40;99.90;;;;;;8297867;28;20053;-71
2021/01/06 05:13:52;;;;;;;44.88;19.00;;;-0.50;99.90;;;;;;8297768;28;20554;-71
2021/01/06 05:17:54;;;;;;;47.35;18.33;;;-0.20;99.90;;;;;;8297698;28;20084;-71
2021/01/06 05:21:55;;;;;;;47.80;18.73;;;-0.20;99.90;;;;;;8279635;28;20065;-71
2021/01/06 05:25:59;;;;;;;46.25;17.92;;;-0.30;99.90;;;;;;8297400;28;20650;-72
2021/01/06 05:30:05;;;;;;;47.75;19.05;;;-0.40;99.90;;;;;;8297048;28;20053;-71
2021/01/06 05:34:06;;;;;;;48.47;18.95;;;-0.40;99.90;;;;;;8279616;28;20062;-71
2021/01/06 05:38:07;;;;;;;46.72;18.50;;;-0.50;99.90;;;;;;8296809;28;20030;-71
2021/01/06 05:42:18;;;;;;;46.88;18.25;;;-0.50;99.90;;;;;;8279249;28;20064;-71
2021/01/06 05:46:27;;;;;;;49.30;18.77;;;-0.50;99.90;;;;;;8296767;28;20101;-71
2021/01/06 05:50:37;;;;;;;42.63;17.50;;;-0.50;99.90;;;;;;8296420;28;20101;-72
2021/01/06 05:54:40;;;;;;;;;;;-0.50;99.90;;;;;;8297184;28;20080;-71
2021/01/06 05:58:49;;;;;;;41.90;17.02;;;-0.30;99.90;;;;;;8279114;28;19913;-71
2021/01/06 06:03:13;;;;;;;42.90;16.75;;;-0.40;99.90;;;;;;8295274;28;20637;-72
2021/01/06 06:07:29;;;;;;;47.80;19.27;;;-0.40;99.90;;;;;;8288146;28;20029;-71
2021/01/06 06:12:26;;;;;;;51.45;19.40;;;-0.50;99.90;;;;;;8295674;28;20503;-71
2021/01/06 06:16:33;;;;;;;46.72;18.70;;;-0.60;99.90;;;;;;8225939;28;20090;-71
2021/01/06 06:21:12;;;;;;;40.97;17.08;;;-0.50;99.90;;;;;;8265685;28;20034;-71
2021/01/06 06:25:35;;;;;;;48.10;19.10;;;-0.40;99.90;;;;;;8295605;28;20022;-71
2021/01/06 06:29:52;;;;;;;42.42;17.67;;;-0.40;99.90;;;;;;8295099;28;20473;-71
2021/01/06 06:33:56;;;;;;;46.85;17.75;;;-0.40;99.90;;;;;;8295175;28;20022;-71
2021/01/06 06:38:03;;;;;;;45.13;17.80;;;-0.50;99.90;;;;;;8294793;28;20045;-71
2021/01/06 06:42:26;;;;;;;41.83;16.00;;;-0.50;99.90;;;;;;8294842;28;20088;-71
2021/01/06 06:46:52;;;;;;;44.00;17.95;;;-0.40;99.90;;;;;;8294613;28;20033;-71
2021/01/06 06:51:03;;;;;;;51.15;20.23;;;-0.50;99.90;;;;;;8294503;28;20028;-72
2021/01/06 06:55:40;;;;;;;49.97;19.23;;;-0.60;99.90;;;;;;8294717;28;20030;-72
2021/01/06 07:00:11;;;;;;;46.30;17.52;;;-0.70;99.90;;;;;;8293824;28;20026;-72
2021/01/06 07:04:36;;;;;;;47.83;17.58;;;-0.60;99.90;;;;;;8293422;28;20022;-71
2021/01/06 07:08:44;;;;;;;46.33;18.30;;;-0.60;99.90;;;;;;8284224;28;20026;-71
2021/01/06 07:12:45;;;;;;;54.53;18.67;;;-0.50;99.90;;;;;;8293256;28;20025;-71
2021/01/06 07:16:52;;;;;;;51.63;20.15;;;-0.40;99.90;;;;;;8293163;28;20022;-71
2021/01/06 07:21:11;;;;;;;51.15;19.85;;;-0.50;99.90;;;;;;8289206;28;20022;-71
2021/01/06 07:25:18;;;;;;;50.47;18.33;;;-0.60;99.90;;;;;;8290242;28;20018;-71
2021/01/06 07:29:20;;;;;;;45.45;20.02;;;-0.60;99.90;;;;;;8291497;28;20448;-71
2021/01/06 07:33:25;;;;;;;47.72;19.83;;;-0.30;99.90;;;;;;8275136;28;20022;-71
2021/01/06 07:37:40;;;;;;;44.40;17.08;;;0.00;99.90;;;;;;8292758;28;20056;-71
2021/01/06 07:41:43;;;;;;;55.08;21.20;;;-0.20;99.90;;;;;;8291873;28;20048;-71
2021/01/06 07:46:15;;;;;;;58.95;22.30;;;-0.10;99.90;;;;;;8291846;28;20511;-71
2021/01/06 07:50:21;;;;;;;54.80;21.50;;;-0.10;99.90;;;;;;8290208;28;20049;-71
2021/01/06 07:54:33;;;;;;;56.60;21.70;;;0.00;99.90;;;;;;8272599;28;20112;-71
2021/01/06 07:58:43;;;;;;;53.40;21.48;;;0.00;99.90;;;;;;8290432;28;20500;-70
2021/01/06 08:02:57;;;;;;;60.13;23.05;;;0.20;99.90;;;;;;8287314;28;20053;-70
2021/01/06 08:07:06;;;;;;;55.88;21.48;;;0.40;99.90;;;;;;8272780;28;20092;-71
2021/01/06 08:11:09;;;;;;;58.85;23.00;;;0.50;99.90;;;;;;8290929;28;20033;-71
2021/01/06 08:15:22;;;;;;;54.10;20.60;;;0.70;99.90;;;;;;8291250;28;20037;-71
2021/01/06 08:19:33;;;;;;;54.40;20.30;;;0.80;99.90;;;;;;8273601;28;20026;-74
2021/01/06 08:23:46;;;;;;;42.60;16.65;;;0.80;99.90;;;;;;8290471;28;20014;-74
2021/01/06 08:27:47;;;;;;;46.97;18.50;;;0.80;99.90;;;;;;8290181;28;20029;-74
2021/01/06 08:31:54;;;;;;;60.72;23.42;;;0.80;99.90;;;;;;8288336;28;20018;-74
2021/01/06 08:36:00;;;;;;;47.22;17.98;;;1.00;99.90;;;;;;8288841;28;20592;-75
2021/01/06 08:40:03;;;;;;;46.70;19.95;;;1.00;99.90;;;;;;8291020;28;20052;-72
2021/01/06 08:44:05;;;;;;;39.75;15.93;;;1.10;99.90;;;;;;8290746;28;20476;-72
2021/01/06 08:48:35;;;;;;;42.38;17.88;;;0.90;99.90;;;;;;8290629;28;20633;-72
2021/01/06 08:52:36;;;;;;;28.77;11.98;;;0.80;99.90;;;;;;8271312;28;20030;-73
2021/01/06 08:56:36;;;;;;;39.33;16.73;;;1.00;99.90;;;;;;8288253;28;20034;-67
2021/01/06 09:00:40;;;;;;;38.67;15.35;;;0.90;99.90;;;;;;8288652;28;20076;-67
2021/01/06 09:04:43;;;;;;;42.42;17.38;;;0.80;99.90;;;;;;8288147;28;20033;-67
2021/01/06 09:09:12;;;;;;;39.63;15.77;;;1.20;99.90;;;;;;8289885;28;20030;-73
2021/01/06 09:13:20;;;;;;;35.55;14.98;;;1.50;99.90;;;;;;8274052;28;20400;-73
2021/01/06 09:17:55;;;;;;;32.40;12.82;;;1.40;99.90;;;;;;8289611;28;20049;-73
2021/01/06 09:21:56;;;;;;;29.23;11.13;;;1.10;99.90;;;;;;8289648;28;20034;-72
2021/01/06 09:26:02;;;;;;;45.35;18.75;;;1.00;99.90;;;;;;8290174;28;20056;-73
2021/01/06 09:30:12;;;;;;;23.25;8.10;;;1.30;99.90;;;;;;8290474;28;20045;-74
2021/01/06 09:34:17;;;;;;;25.38;9.18;;;1.10;99.90;;;;;;8289601;28;20104;-72
2021/01/06 09:38:30;;;;;;;35.22;15.77;;;1.00;99.90;;;;;;8287105;28;20034;-73
2021/01/06 09:42:31;;;;;;;35.78;15.52;;;1.10;99.90;;;;;;8289219;28;20087;-74
2021/01/06 09:46:49;;;;;;;31.42;13.77;;;1.70;99.90;;;;;;8289759;28;20535;-73
2021/01/06 09:50:54;;;;;;;30.45;14.23;;;1.40;99.90;;;;;;8287665;28;20018;-73
2021/01/06 09:54:56;;;;;;;29.63;13.18;;;1.70;99.90;;;;;;8294417;28;20021;-73
2021/01/06 09:58:58;;;;;;;34.42;14.32;;;1.60;99.90;;;;;;8276018;28;20444;-73
2021/01/06 10:03:00;;;;;;;27.75;12.45;;;1.80;99.90;;;;;;8293736;28;20030;-73
2021/01/06 10:07:14;;;;;;;11.88;6.15;;;2.00;99.90;;;;;;8276310;28;20030;-74
2021/01/06 10:11:36;;;;;;;32.72;12.15;;;1.20;99.90;;;;;;8275229;28;20038;-73
2021/01/06 10:16:06;;;;;;;26.20;11.35;;;1.00;99.90;;;;;;8293956;28;20029;-73
2021/01/06 10:20:13;;;;;;;25.98;12.23;;;1.40;99.90;;;;;;8291137;28;20042;-73
2021/01/06 10:25:11;;;;;;;23.42;11.05;;;1.30;99.90;;;;;;8289783;28;20039;-73
2021/01/06 10:29:17;;;;;;;20.80;10.48;;;1.20;99.90;;;;;;8247974;28;20048;-73
2021/01/06 10:33:21;;;;;;;28.42;12.93;;;1.30;99.90;;;;;;8241063;28;20586;-73
2021/01/06 10:37:25;;;;;;;22.90;11.07;;;2.00;99.90;;;;;;8281422;28;20030;-73
2021/01/06 10:41:32;;;;;;;25.40;12.52;;;2.10;99.90;;;;;;8268093;28;20515;-73
2021/01/06 10:45:37;;;;;;;25.25;12.45;;;2.40;99.90;;;;;;8298563;28;20056;-73
2021/01/06 10:49:43;;;;;;;26.67;12.50;;;2.60;99.90;;;;;;8286973;28;20874;-73
2021/01/06 10:53:44;;;;;;;24.40;11.63;;;1.90;99.90;;;;;;8265113;28;20088;-73
2021/01/06 10:58:02;;;;;;;27.90;12.68;;;2.90;99.90;;;;;;8280041;28;20037;-73
2021/01/06 11:02:16;;;;;;;20.73;9.38;;;2.50;99.90;;;;;;8281253;28;20030;-73
2021/01/06 11:06:36;;;;;;;22.80;11.95;;;2.40;99.90;;;;;;8289600;28;20509;-73
2021/01/06 11:10:45;;;;;;;36.90;17.33;;;2.70;99.90;;;;;;8294546;28;20084;-73
2021/01/06 11:15:04;;;;;;;29.45;12.80;;;2.80;99.90;;;;;;8276990;28;20052;-72
2021/01/06 11:19:54;;;;;;;26.17;13.45;;;2.50;99.90;;;;;;8293566;28;20022;-73
2021/01/06 11:24:00;;;;;;;20.52;8.82;;;2.50;99.90;;;;;;8275362;28;20050;-74
2021/01/06 11:28:03;;;;;;;15.18;8.57;;;2.10;99.90;;;;;;8292105;28;20033;-73
2021/01/06 11:32:23;;;;;;;21.90;8.98;;;1.90;99.90;;;;;;8283525;28;20076;-74
2021/01/06 11:36:30;;;;;;;28.65;13.90;;;1.80;99.90;;;;;;8271579;28;20034;-73
2021/01/06 11:40:31;;;;;;;24.00;10.80;;;2.00;99.90;;;;;;8273766;28;20059;-73
2021/01/06 11:44:37;;;;;;;23.55;10.65;;;1.70;99.90;;;;;;8274265;28;20439;-73
2021/01/06 11:48:38;;;;;;;21.17;9.80;;;2.10;99.90;;;;;;8269227;28;20076;-75
2021/01/06 11:52:42;;;;;;;24.30;10.88;;;2.10;99.90;;;;;;8281116;28;20539;-75
2021/01/06 11:56:48;;;;;;;60.15;21.58;;;1.80;99.90;;;;;;8289969;28;20033;-75
2021/01/06 12:01:08;;;;;;;21.45;10.10;;;2.20;99.90;;;;;;8272427;28;20040;-74
2021/01/06 12:05:27;;;;;;;23.17;10.85;;;2.20;99.90;;;;;;8289586;28;20029;-74
2021/01/06 12:09:54;;;;;;;25.73;12.00;;;2.70;99.90;;;;;;8289682;28;20038;-74
2021/01/06 12:14:24;;;;;;;24.23;12.13;;;2.60;99.90;;;;;;8287211;28;20026;-75
2021/01/06 12:18:46;;;;;;;22.52;10.73;;;2.80;99.90;;;;;;8279098;28;20045;-74
2021/01/06 12:23:14;;;;;;;29.17;13.20;;;2.40;99.90;;;;;;8285187;28;20035;-75
2021/01/06 12:27:39;;;;;;;29.67;13.57;;;2.00;99.90;;;;;;8287745;28;20056;-74
2021/01/06 12:32:00;;;;;;;22.00;10.25;;;1.90;99.90;;;;;;8288718;28;20079;-75
2021/01/06 12:36:34;;;;;;;26.20;13.45;;;1.90;99.90;;;;;;8297921;28;20029;-69
2021/01/06 12:41:03;;;;;;;33.40;17.83;;;2.00;99.90;;;;;;8252980;28;20033;-68
2021/01/06 12:45:24;;;;;;;34.92;16.02;;;2.10;99.90;;;;;;8272220;28;20152;-73
2021/01/06 12:49:31;;;;;;;28.10;13.07;;;2.30;99.90;;;;;;8289347;28;20030;-69
2021/01/06 12:53:37;;;;;;;27.52;13.27;;;2.10;99.90;;;;;;8289534;28;20028;-70
2021/01/06 12:57:51;;;;;;;29.17;14.35;;;1.80;99.90;;;;;;8287820;28;20030;-72
2021/01/06 13:01:58;;;;;;;19.95;9.05;;;1.90;99.90;;;;;;8268596;28;20121;-72
2021/01/06 13:06:07;;;;;;;28.15;14.38;;;1.80;99.90;;;;;;8284304;28;20026;-69
2021/01/06 13:10:39;;;;;;;24.40;12.00;;;1.90;99.90;;;;;;8265172;28;20028;-68
2021/01/06 13:15:23;;;;;;;25.27;12.90;;;1.90;99.90;;;;;;8264883;28;20113;-68
2021/01/06 13:19:34;;;;;;;30.20;13.05;;;1.70;99.90;;;;;;8194455;28;20041;-67
2021/01/06 13:23:43;;;;;;;25.30;12.30;;;1.80;99.90;;;;;;8272112;28;20030;-66
2021/01/06 13:27:53;;;;;;;28.70;13.68;;;1.80;99.90;;;;;;8291353;28;20034;-68
2021/01/06 13:32:15;;;;;;;29.55;13.65;;;1.60;99.90;;;;;;8294501;28;20030;-69
2021/01/06 13:36:22;;;;;;;32.35;15.40;;;1.70;99.90;;;;;;8295079;28;20415;-66
2021/01/06 13:40:30;;;;;;;30.35;14.75;;;1.70;99.90;;;;;;8292539;28;20029;-68
2021/01/06 13:44:45;;;;;;;30.02;14.25;;;1.60;99.90;;;;;;8292845;28;20030;-70
2021/01/06 13:49:01;;;;;;;26.70;12.80;;;1.50;99.90;;;;;;8292539;28;20053;-70
2021/01/06 13:53:13;;;;;;;39.78;19.35;;;1.60;99.90;;;;;;8292150;28;20030;-70
2021/01/06 13:57:34;;;;;;;37.90;19.45;;;1.60;99.90;;;;;;8294659;28;20532;-69
2021/01/06 14:01:48;;;;;;;32.80;17.25;;;1.80;99.90;;;;;;8276211;28;20030;-69
2021/01/06 14:06:09;;;;;;;34.13;16.45;;;2.00;99.90;;;;;;8295089;28;20030;-70
2021/01/06 14:10:38;;;;;;;26.50;12.45;;;2.10;99.90;;;;;;8294083;28;20026;-70
2021/01/06 14:15:05;;;;;;;32.47;14.88;;;1.80;99.90;;;;;;8300215;28;20488;-71
2021/01/06 14:19:44;;;;;;;28.00;14.55;;;1.60;99.90;;;;;;8293200;28;20060;-71
2021/01/06 14:23:50;;;;;;;28.38;14.63;;;1.50;99.90;;;;;;8277348;28;20577;-71
2021/01/06 14:28:00;;;;;;;26.88;13.43;;;1.50;99.90;;;;;;8295185;28;20060;-71
2021/01/06 14:32:18;;;;;;;27.50;11.98;;;1.40;99.90;;;;;;8292815;28;20505;-70
2021/01/06 14:36:59;;;;;;;32.83;17.20;;;1.10;99.90;;;;;;8294566;28;20705;-70
2021/01/06 14:41:18;;;;;;;26.40;13.68;;;1.20;99.90;;;;;;8293880;28;20105;-70
2021/01/06 14:45:34;;;;;;;19.83;10.32;;;1.30;99.90;;;;;;8294059;28;20026;-70
2021/01/06 14:49:59;;;;;;;29.98;15.63;;;1.20;99.90;;;;;;8275984;28;20022;-71
2021/01/06 14:54:05;;;;;;;30.85;15.73;;;1.10;99.90;;;;;;8294291;28;20061;-70
2021/01/06 14:58:30;;;;;;;29.40;15.80;;;1.10;99.90;;;;;;8293568;28;20033;-71
2021/01/06 15:02:35;;;;;;;33.00;15.35;;;1.10;99.90;;;;;;8261516;28;20033;-71
2021/01/06 15:07:03;;;;;;;28.65;14.13;;;1.00;99.90;;;;;;8243906;28;20121;-71
2021/01/06 15:11:22;;;;;;;44.55;19.85;;;1.00;99.90;;;;;;8293142;28;20022;-70
2021/01/06 15:15:41;;;;;;;46.00;22.25;;;1.00;99.90;;;;;;8276579;28;20037;-70
2021/01/06 15:19:44;;;;;;;44.50;20.38;;;0.90;99.90;;;;;;8261347;28;20030;-70
2021/01/06 15:23:51;;;;;;;37.40;18.13;;;0.90;99.90;;;;;;8260094;28;20018;-71
2021/01/06 15:28:01;;;;;;;45.15;20.65;;;0.80;99.90;;;;;;8274950;28;20613;-71
2021/01/06 15:32:14;;;;;;;34.08;16.48;;;0.70;99.90;;;;;;8288819;28;20026;-71
2021/01/06 15:36:22;;;;;;;38.17;19.85;;;0.80;99.90;;;;;;8290624;28;20042;-71
2021/01/06 15:40:38;;;;;;;18.70;8.63;;;0.70;99.90;;;;;;8281618;28;20030;-71
2021/01/06 15:44:42;;;;;;;29.92;14.40;;;0.60;99.90;;;;;;8286783;28;20057;-70
2021/01/06 15:48:42;;;;;;;63.65;32.92;;;0.50;99.90;;;;;;8269212;28;20025;-70
2021/01/06 15:52:43;;;;;;;34.42;16.30;;;0.40;99.90;;;;;;8288515;28;20026;-70
2021/01/06 15:56:57;;;;;;;29.15;14.52;;;0.50;99.90;;;;;;8288207;28;20044;-71
2021/01/06 16:01:00;;;;;;;29.77;15.93;;;0.60;99.90;;;;;;8268596;28;20036;-70
2021/01/06 16:05:01;;;;;;;39.83;18.98;;;0.40;99.90;;;;;;8287137;28;20029;-70
2021/01/06 16:09:04;;;;;;;43.53;21.95;;;0.40;99.90;;;;;;8282442;28;20057;-70
2021/01/06 16:13:20;;;;;;;40.78;19.98;;;0.50;99.90;;;;;;8285198;28;20471;-71
2021/01/06 16:17:25;;;;;;;35.22;16.55;;;0.30;99.90;;;;;;8286457;28;20042;-70
2021/01/06 16:21:27;;;;;;;33.20;16.38;;;0.30;99.90;;;;;;8269764;28;20377;-70
2021/01/06 16:25:46;;;;;;;31.90;14.18;;;0.30;99.90;;;;;;8269521;28;20125;-73
2021/01/06 16:29:51;;;;;;;28.40;14.77;;;0.30;99.90;;;;;;8267392;28;20033;-73
2021/01/06 16:33:52;;;;;;;29.48;14.70;;;0.20;99.90;;;;;;8268624;28;20049;-73
2021/01/06 16:38:02;;;;;;;30.17;12.85;;;0.20;99.90;;;;;;8285809;28;20396;-73
2021/01/06 16:42:05;;;;;;;26.40;13.07;;;0.30;99.90;;;;;;8285963;28;20060;-73
2021/01/06 16:46:14;;;;;;;21.33;10.43;;;0.10;99.90;;;;;;8286146;28;20462;-74
2021/01/06 16:50:26;;;;;;;21.73;11.00;;;0.30;99.90;;;;;;8286143;28;20030;-73
2021/01/06 16:54:28;;;;;;;30.25;14.88;;;0.20;99.90;;;;;;8287908;28;20072;-73
2021/01/06 16:58:31;;;;;;;34.50;15.55;;;0.10;99.90;;;;;;8287531;28;20100;-73
2021/01/06 17:02:33;;;;;;;27.92;12.52;;;0.20;99.90;;;;;;8299080;28;20124;-72
2021/01/06 17:06:40;;;;;;;27.60;14.57;;;0.10;99.90;;;;;;8276008;28;20080;-73
2021/01/06 17:10:41;;;;;;;25.45;10.77;;;0.20;99.90;;;;;;8292980;28;20026;-73
2021/01/06 17:14:42;;;;;;;23.90;12.25;;;0.10;99.90;;;;;;8275850;28;20061;-73
2021/01/06 17:18:49;;;;;;;26.85;13.82;;;0.30;99.90;;;;;;8291914;28;20080;-73
2021/01/06 17:22:50;;;;;;;27.17;12.38;;;0.30;99.90;;;;;;8275717;28;20560;-73
2021/01/06 17:26:57;;;;;;;25.52;13.02;;;0.20;99.90;;;;;;8275388;28;20053;-72
2021/01/06 17:30:58;;;;;;;24.38;11.25;;;0.10;99.90;;;;;;8292457;28;20028;-73
2021/01/06 17:35:21;;;;;;;30.77;15.95;;;0.20;99.90;;;;;;8291757;28;20630;-72
2021/01/06 17:39:33;;;;;;;16.20;8.65;;;0.20;99.90;;;;;;8298641;28;20034;-73
2021/01/06 17:43:35;;;;;;;23.02;11.85;;;0.20;99.90;;;;;;8286862;28;20120;-72
2021/01/06 17:47:41;;;;;;;24.98;12.02;;;0.20;99.90;;;;;;8289650;28;20025;-72
2021/01/06 17:51:42;;;;;;;42.10;19.65;;;0.20;99.90;;;;;;8271452;28;20138;-73
2021/01/06 17:55:46;;;;;;;67.07;26.60;;;0.10;99.90;;;;;;8272245;28;20029;-73
2021/01/06 17:59:47;;;;;;;22.63;10.98;;;0.10;99.90;;;;;;8273911;28;20124;-73
2021/01/06 18:03:57;;;;;;;24.95;11.82;;;0.20;99.90;;;;;;8292277;28;20107;-73
2021/01/06 18:08:06;;;;;;;28.17;14.13;;;0.20;99.90;;;;;;8273971;28;20030;-73
2021/01/06 18:12:10;;;;;;;22.70;12.00;;;0.20;99.90;;;;;;8288387;28;20265;-72
2021/01/06 18:16:18;;;;;;;27.30;14.68;;;0.20;99.90;;;;;;8270068;28;20503;-72
2021/01/06 18:20:32;;;;;;;32.20;15.02;;;0.10;99.90;;;;;;8288606;28;20112;-72
2021/01/06 18:24:37;;;;;;;31.58;18.20;;;0.10;99.90;;;;;;8286098;28;20038;-72
2021/01/06 18:28:37;;;;;;;21.23;11.23;;;0.20;99.90;;;;;;8288835;28;20061;-72
2021/01/06 18:32:38;;;;;;;27.10;13.40;;;0.30;99.90;;;;;;8288268;28;20080;-72
2021/01/06 18:36:38;;;;;;;24.20;13.25;;;0.30;99.90;;;;;;8287970;28;20030;-72
2021/01/06 18:40:41;;;;;;;23.85;10.38;;;0.20;99.90;;;;;;8270000;28;20053;-72
2021/01/06 18:44:41;;;;;;;25.98;14.32;;;0.20;99.90;;;;;;8284142;28;20037;-72
2021/01/06 18:48:42;;;;;;;24.75;12.82;;;0.20;99.90;;;;;;8269282;28;20488;-72
2021/01/06 18:52:42;;;;;;;23.48;11.73;;;0.20;99.90;;;;;;8286463;28;20040;-72
2021/01/06 18:56:44;;;;;;;29.40;12.98;;;0.20;99.90;;;;;;8268853;28;20528;-72
2021/01/06 19:00:45;;;;;;;28.55;13.85;;;0.20;99.90;;;;;;8286699;28;20029;-72
2021/01/06 19:04:57;;;;;;;20.83;10.70;;;0.20;99.90;;;;;;8288376;28;20033;-72
2021/01/06 19:08:58;;;;;;;24.38;12.75;;;0.10;99.90;;;;;;8282970;28;20531;-69
2021/01/06 19:13:02;;;;;;;26.35;13.43;;;0.00;99.90;;;;;;8261195;28;20068;-69
2021/01/06 19:17:18;;;;;;;25.75;13.55;;;0.10;99.90;;;;;;8273831;28;20120;-70
2021/01/06 19:21:18;;;;;;;24.75;11.65;;;0.20;99.90;;;;;;8253884;28;21615;-70
2021/01/06 19:25:20;;;;;;;26.38;11.98;;;0.20;99.90;;;;;;8274949;28;20113;-69
2021/01/06 19:29:21;;;;;;;27.77;12.70;;;0.20;99.90;;;;;;8273214;28;20040;-70
2021/01/06 19:33:28;;;;;;;22.10;10.93;;;0.10;99.90;;;;;;8279447;28;20030;-69
2021/01/06 19:37:29;;;;;;;9.48;5.25;;;0.10;99.90;;;;;;8247766;28;20050;-69
2021/01/06 19:41:36;;;;;;;26.95;13.35;;;0.10;99.90;;;;;;8260528;28;20777;-69
2021/01/06 19:45:38;;;;;;;27.85;13.38;;;0.10;99.90;;;;;;8262402;28;20511;-69
2021/01/06 19:49:38;;;;;;;25.35;13.25;;;0.10;99.90;;;;;;8270622;28;20109;-69
2021/01/06 19:53:39;;;;;;;28.42;14.35;;;0.10;99.90;;;;;;8282476;28;20026;-68
2021/01/06 19:57:40;;;;;;;19.48;9.82;;;0.10;99.90;;;;;;8277928;28;20021;-70
2021/01/06 20:01:41;;;;;;;25.45;13.43;;;0.10;99.90;;;;;;8285281;28;20416;-69
2021/01/06 20:06:02;;;;;;;27.13;13.35;;;0.10;99.90;;;;;;8287187;28;20041;-69
2021/01/06 20:10:21;;;;;;;28.85;12.45;;;0.00;99.90;;;;;;8284501;28;20049;-69
2021/01/06 20:14:21;;;;;;;27.52;13.18;;;0.10;99.90;;;;;;8296563;28;20042;-69
2021/01/06 20:18:22;;;;;;;16.15;8.60;;;0.10;99.90;;;;;;8283941;28;20175;-69
2021/01/06 20:22:22;;;;;;;25.58;13.23;;;0.10;99.90;;;;;;8267847;28;20037;-69
2021/01/06 20:26:23;;;;;;;24.80;11.88;;;-0.10;99.90;;;;;;8286046;28;20030;-69
2021/01/06 20:30:24;;;;;;;25.10;12.93;;;0.10;99.90;;;;;;8284014;28;20022;-69
2021/01/06 20:34:24;;;;;;;23.08;12.02;;;0.00;99.90;;;;;;8284881;28;20025;-69
2021/01/06 20:38:25;;;;;;;23.70;12.85;;;0.20;99.90;;;;;;8267146;28;20037;-69
2021/01/06 20:42:26;;;;;;;22.95;13.13;;;0.00;99.90;;;;;;8284370;28;20435;-69
2021/01/06 20:46:28;;;;;;;23.73;12.57;;;0.10;99.90;;;;;;8283697;28;20076;-69
2021/01/06 20:50:29;;;;;;;22.48;12.45;;;0.10;99.90;;;;;;8281852;28;20022;-68
2021/01/06 20:54:30;;;;;;;22.55;12.15;;;0.20;99.90;;;;;;8284793;28;20119;-69
2021/01/06 20:58:30;;;;;;;22.35;11.95;;;0.00;99.90;;;;;;8281736;28;20744;-69
2021/01/06 21:02:31;;;;;;;13.75;8.02;;;0.00;99.90;;;;;;8284161;28;20121;-69
2021/01/06 21:06:31;;;;;;;24.95;13.27;;;-0.10;99.90;;;;;;8283078;28;20041;-69
2021/01/06 21:10:35;;;;;;;25.00;13.27;;;-0.10;99.90;;;;;;8284282;28;20022;-69
2021/01/06 21:14:37;;;;;;;24.48;12.80;;;0.00;99.90;;;;;;8284872;28;20719;-69